San Simon, Arizona
Current Conditions -  °F | °C
As of 5:15 PM on Friday 24 Oct 2014 (Local Time) from KLSB Reporting Station
Clear Clear  
Wind Chill: 26°   Ceiling: Unl
Heat Index: 26°   Visibility: 10mi
Dew Point:   Wind: 3mph
Humidity: 26%   Direction: 280°W
Pressure: 30.16"   Gusts: NA
Location:  32.27°N, 109.23°W
Report Text: KLSB 250015Z AUTO 28003KT 10SM CLR 26/05 A3016 RMK AO2
Loading
Personal Weather Stations






























Interactive Weather Map
Tropical Storm Tracking
New forecast layout! Learn more

10-Day Weather Forecast

Advertisements
Track Severe Weather on mobile